Time;durP1;ratioP1;P1;durP2;ratioP2;P2;SDS_P1;SDS_P2;PMS_P1;PMS_P2;Temp;Humidity;BMP_temperature;BMP_pressure;BME280_temperature;BME280_humidity;BME280_pressure;Samples;Min_cycle;Max_cycle;Signal;HPM_P1;HPM_P2
2022/12/01 00:01:53;;;;;;;49.13;22.92;;;5.20;78.70;;;;;;4129761;28;20132;-83
2022/12/01 00:03:54;;;;;;;48.58;22.73;;;5.20;78.70;;;;;;4142585;28;20045;-83
2022/12/01 00:06:06;;;;;;;53.13;24.27;;;5.20;78.80;;;;;;4126068;28;20073;-83
2022/12/01 00:08:07;;;;;;;51.17;23.95;;;5.20;78.90;;;;;;4125997;28;20364;-83
2022/12/01 00:10:25;;;;;;;57.25;25.52;;;5.20;79.00;;;;;;4143920;28;20022;-82
2022/12/01 00:12:25;;;;;;;52.72;24.95;;;5.20;79.00;;;;;;4141392;28;20105;-83
2022/12/01 00:14:26;;;;;;;53.05;25.77;;;5.20;79.00;;;;;;4108204;28;20027;-81
2022/12/01 00:16:27;;;;;;;57.15;26.20;;;5.20;79.00;;;;;;4111104;28;20031;-83
2022/12/01 00:18:27;;;;;;;54.03;26.50;;;5.20;78.90;;;;;;4141124;28;20026;-82
2022/12/01 00:20:28;;;;;;;61.83;26.88;;;5.20;78.90;;;;;;4124544;28;20030;-83
2022/12/01 00:22:29;;;;;;;66.55;27.73;;;5.20;78.90;;;;;;4138128;28;20029;-82
2022/12/01 00:24:30;;;;;;;56.78;27.55;;;5.20;78.90;;;;;;4125950;28;20436;-83
2022/12/01 00:26:30;;;;;;;62.25;27.45;;;5.20;78.80;;;;;;4126012;28;20073;-83
2022/12/01 00:28:31;;;;;;;57.60;28.20;;;5.20;78.80;;;;;;4126940;28;20648;-83
2022/12/01 00:30:31;;;;;;;60.00;29.52;;;5.20;78.80;;;;;;4124963;28;20034;-83
2022/12/01 00:32:32;;;;;;;64.70;29.75;;;5.20;78.90;;;;;;4142817;28;20083;-81
2022/12/01 00:34:33;;;;;;;61.42;29.02;;;5.20;78.90;;;;;;4105187;28;20030;-82
2022/12/01 00:36:34;;;;;;;63.75;28.90;;;5.20;78.80;;;;;;4142748;28;20036;-82
2022/12/01 00:38:35;;;;;;;64.45;31.48;;;5.10;78.80;;;;;;4124072;28;20027;-82
2022/12/01 00:40:36;;;;;;;70.97;32.83;;;5.10;78.80;;;;;;4128914;28;20026;-83
2022/12/01 00:42:37;;;;;;;65.38;29.88;;;5.10;78.80;;;;;;4124800;28;20034;-83
2022/12/01 00:44:37;;;;;;;63.53;30.02;;;5.10;78.90;;;;;;4128433;28;20034;-83
2022/12/01 00:46:38;;;;;;;61.58;28.88;;;5.10;78.90;;;;;;4147982;28;20100;-83
2022/12/01 00:48:39;;;;;;;56.25;28.52;;;5.10;78.90;;;;;;4123544;28;20025;-82
2022/12/01 00:50:40;;;;;;;57.33;27.45;;;5.10;79.00;;;;;;4145833;28;20033;-82
2022/12/01 00:52:40;;;;;;;65.18;29.98;;;5.10;79.00;;;;;;4129774;28;20030;-81
2022/12/01 00:54:41;;;;;;;64.47;29.42;;;5.10;79.10;;;;;;4127216;28;20412;-83
2022/12/01 00:56:42;;;;;;;61.53;29.00;;;5.10;79.20;;;;;;4115256;28;20099;-83
2022/12/01 00:58:43;;;;;;;67.07;31.60;;;5.10;79.20;;;;;;4149289;28;20034;-83
2022/12/01 01:00:43;;;;;;;61.10;28.90;;;5.10;79.30;;;;;;4130840;28;20026;-83
2022/12/01 01:02:44;;;;;;;63.30;30.23;;;5.10;79.30;;;;;;4117758;28;20458;-83
2022/12/01 01:04:44;;;;;;;64.70;29.90;;;5.10;79.30;;;;;;4128982;28;20041;-82
2022/12/01 01:06:45;;;;;;;61.17;28.65;;;5.10;80.20;;;;;;4117941;28;20073;-82
2022/12/01 01:08:46;;;;;;;58.90;29.05;;;5.10;79.40;;;;;;4119204;28;20436;-83
2022/12/01 01:10:47;;;;;;;70.88;30.52;;;5.10;79.40;;;;;;4145260;28;20034;-82
2022/12/01 01:12:49;;;;;;;67.97;29.77;;;5.10;79.40;;;;;;4145226;28;20061;-83
2022/12/01 01:14:50;;;;;;;62.38;28.70;;;5.10;79.40;;;;;;4127539;28;21083;-83
2022/12/01 01:16:50;;;;;;;61.00;27.65;;;5.10;79.40;;;;;;4141554;28;20026;-83
2022/12/01 01:18:51;;;;;;;61.53;28.27;;;5.10;79.40;;;;;;4116801;28;20085;-82
2022/12/01 01:20:57;;;;;;;65.10;29.50;;;5.10;79.40;;;;;;4141849;28;20411;-82
2022/12/01 01:22:58;;;;;;;64.40;28.98;;;5.10;79.40;;;;;;4111128;28;20509;-83
2022/12/01 01:24:58;;;;;;;64.20;28.58;;;5.10;79.40;;;;;;4146645;28;20032;-83
2022/12/01 01:26:59;;;;;;;60.88;28.95;;;5.10;79.50;;;;;;4145006;28;20066;-83
2022/12/01 01:29:02;;;;;;;60.78;28.95;;;5.10;79.40;;;;;;4126415;28;20113;-82
2022/12/01 01:31:13;;;;;;;62.72;29.13;;;5.20;79.60;;;;;;4116846;28;20039;-83
2022/12/01 01:33:14;;;;;;;59.42;27.83;;;5.10;79.50;;;;;;4142168;28;20030;-83
2022/12/01 01:35:15;;;;;;;58.65;27.13;;;5.10;79.60;;;;;;4113085;28;20036;-83
2022/12/01 01:37:15;;;;;;;55.13;25.42;;;5.00;79.60;;;;;;4126748;28;20023;-83
2022/12/01 01:39:16;;;;;;;54.60;24.10;;;5.00;79.60;;;;;;4130389;28;20026;-82
2022/12/01 01:41:18;;;;;;;47.60;23.20;;;5.00;79.70;;;;;;4132107;28;20026;-80
2022/12/01 01:43:44;;;;;;;48.33;22.23;;;5.00;79.70;;;;;;4130426;28;20026;-83
2022/12/01 01:45:44;;;;;;;45.42;22.17;;;5.00;80.10;;;;;;4142744;28;20095;-81
2022/12/01 01:47:46;;;;;;;47.13;23.25;;;4.90;80.10;;;;;;4129225;28;20420;-83
2022/12/01 01:49:47;;;;;;;44.50;21.08;;;4.90;80.30;;;;;;4144351;28;20124;-82
2022/12/01 01:51:51;;;;;;;49.67;21.92;;;4.90;80.40;;;;;;4127591;28;20041;-83
2022/12/01 01:54:07;;;;;;;42.15;19.50;;;4.90;80.40;;;;;;4144949;28;20022;-82
2022/12/01 01:56:08;;;;;;;45.22;20.58;;;4.90;80.50;;;;;;4122943;28;20112;-83
2022/12/01 01:58:10;;;;;;;43.70;18.90;;;4.90;80.50;;;;;;4146424;28;20034;-82
2022/12/01 02:00:15;;;;;;;44.03;20.73;;;4.80;80.50;;;;;;4139343;28;20161;-82
2022/12/01 02:02:15;;;;;;;40.50;20.08;;;4.80;80.70;;;;;;4128717;28;20058;-83
2022/12/01 02:04:18;;;;;;;45.40;20.50;;;4.80;80.80;;;;;;4142853;28;20050;-83
2022/12/01 02:06:20;;;;;;;41.72;20.45;;;4.70;80.80;;;;;;4129915;28;20940;-82
2022/12/01 02:08:21;;;;;;;42.13;19.38;;;4.80;81.00;;;;;;4127606;28;20037;-82
2022/12/01 02:10:48;;;;;;;40.28;20.83;;;4.70;81.00;;;;;;4125303;28;20034;-81
2022/12/01 02:13:18;;;;;;;42.05;18.52;;;4.70;81.10;;;;;;4142862;28;20033;-82
2022/12/01 02:16:06;;;;;;;41.42;18.80;;;4.70;81.20;;;;;;4128829;28;20034;-82
2022/12/01 02:18:32;;;;;;;39.38;19.30;;;4.70;81.40;;;;;;4129348;28;20041;-83
2022/12/01 02:21:12;;;;;;;40.13;19.73;;;4.70;81.30;;;;;;4129714;28;20053;-82
2022/12/01 02:24:10;;;;;;;39.67;18.23;;;4.70;81.40;;;;;;4130446;28;20037;-82
2022/12/01 02:26:47;;;;;;;36.45;18.10;;;4.70;81.50;;;;;;4140288;28;20060;-82
2022/12/01 02:29:10;;;;;;;34.33;17.73;;;4.70;81.60;;;;;;4130748;28;20030;-81
2022/12/01 02:31:44;;;;;;;39.65;18.30;;;4.80;81.40;;;;;;4144136;28;20113;-83
2022/12/01 02:34:14;;;;;;;34.25;17.95;;;4.70;81.60;;;;;;4143554;28;20049;-82
2022/12/01 02:37:03;;;;;;;39.88;18.35;;;4.60;81.60;;;;;;4143601;28;20049;-82
2022/12/01 02:39:53;;;;;;;35.13;17.25;;;4.70;81.90;;;;;;4141899;28;20036;-83
2022/12/01 02:45:12;;;;;;;38.78;17.23;;;4.70;81.70;;;;;;4143099;28;20026;-82
2022/12/01 02:47:35;;;;;;;35.45;17.75;;;4.70;81.80;;;;;;4142107;28;20034;-82
2022/12/01 02:49:57;;;;;;;35.10;17.40;;;4.60;81.90;;;;;;4140230;28;20034;-83
2022/12/01 02:52:21;;;;;;;38.75;17.98;;;4.60;81.90;;;;;;4128886;28;20039;-80
2022/12/01 02:54:47;;;;;;;33.22;17.60;;;4.60;82.00;;;;;;4146054;28;20481;-82
2022/12/01 02:57:12;;;;;;;33.75;16.75;;;4.60;82.00;;;;;;4142888;28;20054;-83
2022/12/01 02:59:33;;;;;;;35.25;17.85;;;4.60;82.00;;;;;;4128754;28;20034;-83
2022/12/01 03:02:12;;;;;;;38.25;18.30;;;4.50;82.00;;;;;;4128665;28;20109;-82
2022/12/01 03:04:35;;;;;;;33.85;16.83;;;4.50;82.10;;;;;;4140502;28;20026;-82
2022/12/01 03:07:18;;;;;;;37.08;17.33;;;4.50;82.00;;;;;;4126684;28;20066;-82
2022/12/01 03:09:54;;;;;;;34.33;17.27;;;4.50;81.70;;;;;;4128260;28;20061;-82
2022/12/01 03:12:29;;;;;;;33.10;16.88;;;4.50;81.90;;;;;;4139582;28;20034;-81
2022/12/01 03:15:07;;;;;;;30.75;15.77;;;4.50;81.90;;;;;;4143468;28;20045;-82
2022/12/01 03:17:34;;;;;;;34.10;16.77;;;4.50;81.80;;;;;;4138277;28;20029;-82
2022/12/01 03:20:02;;;;;;;28.73;15.32;;;4.50;81.80;;;;;;4138200;28;20134;-82
2022/12/01 03:22:33;;;;;;;32.90;14.10;;;4.60;81.80;;;;;;4145579;28;20034;-83
2022/12/01 03:24:56;;;;;;;28.25;14.23;;;4.60;81.70;;;;;;4146157;28;20031;-83
2022/12/01 03:27:21;;;;;;;28.10;14.02;;;4.60;81.60;;;;;;4144229;28;20125;-83
2022/12/01 03:29:46;;;;;;;33.78;15.75;;;4.60;81.60;;;;;;4143773;28;20038;-82
2022/12/01 03:32:31;;;;;;;32.67;16.17;;;4.60;81.60;;;;;;4145439;28;20030;-83
2022/12/01 03:34:57;;;;;;;32.05;14.90;;;4.60;81.60;;;;;;4143293;28;20035;-83
2022/12/01 03:37:39;;;;;;;33.85;15.85;;;4.60;81.50;;;;;;4150970;28;20040;-82
2022/12/01 03:40:05;;;;;;;30.55;14.02;;;4.60;81.50;;;;;;4148342;28;20029;-82
2022/12/01 03:42:37;;;;;;;28.08;14.70;;;4.70;81.50;;;;;;4134489;28;20034;-82
2022/12/01 03:45:03;;;;;;;32.78;14.82;;;4.70;81.50;;;;;;4147632;28;20896;-81
2022/12/01 03:47:28;;;;;;;34.20;15.88;;;4.70;81.50;;;;;;4150037;28;20112;-82
2022/12/01 03:49:51;;;;;;;27.38;14.07;;;4.70;81.50;;;;;;4146528;28;20022;-83
2022/12/01 03:52:13;;;;;;;28.25;15.05;;;4.70;81.50;;;;;;4136107;28;20049;-82
2022/12/01 03:55:26;;;;;;;31.65;14.77;;;4.70;82.30;;;;;;4146079;28;20434;-82
2022/12/01 03:57:57;;;;;;;31.83;15.35;;;4.70;81.50;;;;;;4052155;29;20071;-82
2022/12/01 04:00:18;;;;;;;34.60;15.77;;;4.70;81.60;;;;;;4056106;29;20603;-82
2022/12/01 04:02:37;;;;;;;29.27;14.27;;;4.60;81.60;;;;;;4053546;29;20043;-83
2022/12/01 04:04:56;;;;;;;39.95;15.48;;;4.60;81.80;;;;;;4052955;29;21685;-82
2022/12/01 04:07:16;;;;;;;33.13;15.38;;;4.60;81.80;;;;;;4054058;29;20131;-83
2022/12/01 04:09:35;;;;;;;32.25;15.95;;;4.60;81.90;;;;;;4053429;29;20044;-84
2022/12/01 04:14:33;;;;;;;32.65;16.52;;;4.50;82.10;;;;;;4054320;29;20048;-83
2022/12/01 04:16:52;;;;;;;32.92;15.98;;;4.50;82.20;;;;;;4042107;29;20040;-83
2022/12/01 04:19:12;;;;;;;26.95;13.45;;;4.50;82.10;;;;;;4053995;29;20032;-83
2022/12/01 04:21:31;;;;;;;30.88;14.25;;;4.60;82.20;;;;;;4055840;29;20065;-83
2022/12/01 04:23:59;;;;;;;32.53;15.20;;;4.60;82.10;;;;;;4059177;29;20128;-83
2022/12/01 04:26:19;;;;;;;30.10;14.15;;;4.60;82.90;;;;;;4051884;29;20048;-84
2022/12/01 04:28:38;;;;;;;31.27;14.82;;;4.60;82.30;;;;;;4053171;29;20120;-83
2022/12/01 04:30:57;;;;;;;31.70;14.68;;;4.60;82.10;;;;;;4061573;28;20080;-82
2022/12/01 04:33:16;;;;;;;26.35;13.45;;;4.60;82.10;;;;;;4132480;28;20092;-83
2022/12/01 04:35:36;;;;;;;34.00;14.63;;;4.60;82.20;;;;;;4133351;28;20096;-82
2022/12/01 04:37:55;;;;;;;32.97;13.25;;;4.60;82.20;;;;;;4145661;28;20084;-83
2022/12/01 04:40:14;;;;;;;27.98;13.13;;;4.80;82.20;;;;;;4147314;28;20073;-83
2022/12/01 04:42:34;;;;;;;33.92;13.38;;;4.70;82.00;;;;;;4147683;28;20622;-82
2022/12/01 04:44:53;;;;;;;32.55;15.27;;;4.70;82.00;;;;;;4145379;28;20068;-83
2022/12/01 04:47:12;;;;;;;27.65;13.48;;;4.70;81.90;;;;;;4134871;28;20090;-83
2022/12/01 04:49:32;;;;;;;28.48;14.18;;;4.70;81.80;;;;;;4131486;28;20849;-80
2022/12/01 04:51:51;;;;;;;35.13;16.73;;;4.60;81.70;;;;;;4142210;28;20069;-85
2022/12/01 04:54:10;;;;;;;37.83;18.63;;;4.60;81.60;;;;;;4145308;28;20037;-82
2022/12/01 04:56:30;;;;;;;40.22;19.10;;;4.60;81.50;;;;;;4147311;28;20095;-83
2022/12/01 04:58:49;;;;;;;46.28;20.48;;;4.60;81.60;;;;;;4147023;28;20045;-83
2022/12/01 05:01:12;;;;;;;43.67;19.88;;;4.60;81.60;;;;;;4146665;28;20519;-82
2022/12/01 05:03:31;;;;;;;40.05;19.33;;;4.60;81.60;;;;;;4133063;28;20045;-82
2022/12/01 05:06:09;;;;;;;42.72;20.02;;;4.60;81.60;;;;;;4131826;28;20040;-82
2022/12/01 05:08:29;;;;;;;42.40;19.73;;;4.60;81.60;;;;;;4124793;28;20053;-82
2022/12/01 05:10:48;;;;;;;44.17;20.83;;;4.60;81.70;;;;;;4124013;28;20102;-81
2022/12/01 05:13:07;;;;;;;42.17;20.73;;;4.60;81.70;;;;;;4143474;28;20697;-82
2022/12/01 05:15:27;;;;;;;40.92;19.85;;;4.60;81.70;;;;;;4128310;28;20058;-81
2022/12/01 05:17:46;;;;;;;42.40;21.17;;;4.60;81.70;;;;;;4137280;28;20048;-83
2022/12/01 05:22:44;;;;;;;48.15;20.75;;;4.60;81.70;;;;;;4142527;28;20470;-83
2022/12/01 05:25:03;;;;;;;47.13;22.17;;;4.60;81.60;;;;;;4144469;28;20061;-82
2022/12/01 05:27:22;;;;;;;46.60;21.08;;;4.70;81.70;;;;;;4130392;28;20113;-81
2022/12/01 05:29:41;;;;;;;45.58;20.75;;;4.60;81.60;;;;;;4126970;28;20049;-81
2022/12/01 05:32:01;;;;;;;49.97;20.08;;;4.70;81.60;;;;;;4148384;28;20081;-82
2022/12/01 05:34:21;;;;;;;45.00;19.23;;;4.70;81.60;;;;;;4144571;28;20037;-82
2022/12/01 05:36:40;;;;;;;47.78;19.20;;;4.70;81.50;;;;;;4129680;28;20078;-82
2022/12/01 05:39:00;;;;;;;49.95;19.80;;;4.70;81.60;;;;;;4148509;28;20049;-82
2022/12/01 05:41:19;;;;;;;42.25;17.42;;;4.70;81.50;;;;;;4130594;28;20456;-82
2022/12/01 05:43:38;;;;;;;42.92;19.10;;;4.80;81.60;;;;;;4128706;28;20052;-82
2022/12/01 05:45:57;;;;;;;45.60;19.67;;;4.80;81.60;;;;;;4143883;28;20280;-82
2022/12/01 05:48:16;;;;;;;48.38;20.73;;;4.90;81.60;;;;;;4125919;28;20099;-82
2022/12/01 05:50:38;;;;;;;50.17;21.58;;;4.80;81.50;;;;;;4136867;28;20053;-83
2022/12/01 05:52:58;;;;;;;48.72;22.63;;;4.80;81.50;;;;;;4130893;28;20046;-85
2022/12/01 05:55:18;;;;;;;52.17;21.70;;;4.80;82.20;;;;;;4154131;28;20044;-84
2022/12/01 05:57:37;;;;;;;53.50;22.33;;;4.80;81.40;;;;;;4140382;28;20086;-83
2022/12/01 05:59:56;;;;;;;50.47;20.77;;;4.80;82.10;;;;;;4152591;28;20045;-84
2022/12/01 06:02:16;;;;;;;47.53;21.08;;;4.80;81.30;;;;;;4146329;28;20045;-83
2022/12/01 06:04:35;;;;;;;50.63;23.20;;;4.80;81.20;;;;;;4145943;28;20159;-84
2022/12/01 06:06:54;;;;;;;52.78;24.33;;;4.90;81.20;;;;;;4150244;28;20038;-83
2022/12/01 06:09:13;;;;;;;51.80;22.38;;;4.80;81.80;;;;;;4145234;28;20044;-83
2022/12/01 06:11:32;;;;;;;60.58;25.30;;;4.90;81.10;;;;;;4144830;28;20081;-84
2022/12/01 06:13:51;;;;;;;49.80;22.67;;;4.80;81.00;;;;;;4148309;28;20077;-84
2022/12/01 06:16:10;;;;;;;55.03;23.45;;;4.80;81.20;;;;;;4148463;28;20062;-84
2022/12/01 06:18:32;;;;;;;52.60;24.10;;;4.80;81.10;;;;;;4147947;28;20044;-83
2022/12/01 06:20:52;;;;;;;57.70;24.88;;;4.90;81.20;;;;;;4145769;28;20053;-84
2022/12/01 06:23:11;;;;;;;53.60;23.70;;;4.90;81.10;;;;;;4149125;28;20048;-84
2022/12/01 06:25:30;;;;;;;50.95;23.95;;;4.80;81.00;;;;;;4146501;28;20420;-84
2022/12/01 06:27:53;;;;;;;53.88;24.20;;;4.80;81.10;;;;;;4147172;28;20334;-84
2022/12/01 06:30:13;;;;;;;54.65;23.23;;;4.90;81.10;;;;;;4144652;28;20053;-83
2022/12/01 06:32:32;;;;;;;52.00;23.13;;;4.80;81.00;;;;;;4137262;28;20555;-84
2022/12/01 06:34:51;;;;;;;46.85;21.92;;;4.90;81.00;;;;;;4153220;28;20033;-84
2022/12/01 06:37:11;;;;;;;43.95;20.27;;;4.80;80.90;;;;;;4149494;28;20045;-83
2022/12/01 06:39:30;;;;;;;47.70;20.92;;;4.80;80.90;;;;;;4148599;28;20233;-84
2022/12/01 06:41:49;;;;;;;49.08;20.58;;;4.90;81.00;;;;;;4149866;28;20041;-84
2022/12/01 06:44:09;;;;;;;43.45;21.10;;;4.80;80.90;;;;;;4145525;28;20048;-84
2022/12/01 06:46:29;;;;;;;47.10;21.65;;;4.80;81.00;;;;;;4148832;28;20061;-84
2022/12/01 06:48:48;;;;;;;44.50;19.85;;;4.90;81.00;;;;;;4146261;28;20108;-83
2022/12/01 06:51:07;;;;;;;40.80;19.33;;;4.80;81.00;;;;;;4143100;28;20619;-84
2022/12/01 06:53:27;;;;;;;42.53;19.55;;;4.80;81.10;;;;;;4144916;28;20383;-83
2022/12/01 06:55:47;;;;;;;39.78;19.38;;;4.90;81.10;;;;;;4131475;28;20113;-82
2022/12/01 06:58:06;;;;;;;44.17;19.75;;;4.90;81.00;;;;;;4130183;28;20470;-85
2022/12/01 07:00:26;;;;;;;36.65;18.27;;;4.90;81.00;;;;;;4151584;28;20036;-83
2022/12/01 07:02:45;;;;;;;39.08;18.92;;;4.90;81.00;;;;;;4148406;28;20049;-84
2022/12/01 07:05:05;;;;;;;40.75;19.52;;;4.90;81.00;;;;;;4146682;28;20049;-83
2022/12/01 07:07:24;;;;;;;44.30;19.77;;;4.90;81.00;;;;;;4145402;28;20187;-83
2022/12/01 07:09:43;;;;;;;40.88;19.95;;;4.90;80.80;;;;;;4145996;28;20112;-84
2022/12/01 07:12:03;;;;;;;41.88;20.38;;;5.00;81.10;;;;;;4141677;28;20041;-84
2022/12/01 07:14:24;;;;;;;49.05;22.20;;;4.90;81.00;;;;;;4156693;28;21645;-83
2022/12/01 07:16:43;;;;;;;47.20;19.90;;;5.10;81.00;;;;;;4132930;28;20045;-83
2022/12/01 07:19:02;;;;;;;43.65;21.35;;;5.00;80.90;;;;;;4134040;28;20041;-83
2022/12/01 07:21:22;;;;;;;47.95;22.02;;;5.00;81.00;;;;;;4145370;28;20037;-83
2022/12/01 07:23:41;;;;;;;40.42;19.98;;;5.00;81.00;;;;;;4131289;28;20049;-83
2022/12/01 07:26:03;;;;;;;44.38;20.92;;;5.00;80.90;;;;;;4130939;28;20038;-84
2022/12/01 07:28:22;;;;;;;41.92;19.27;;;4.90;80.90;;;;;;4141831;28;20044;-83
2022/12/01 07:30:41;;;;;;;55.40;23.27;;;4.90;80.90;;;;;;4143707;28;20120;-83
2022/12/01 07:33:01;;;;;;;46.30;19.83;;;5.10;81.10;;;;;;4129547;28;20045;-83
2022/12/01 07:35:20;;;;;;;43.47;20.33;;;5.00;81.50;;;;;;4133178;28;20433;-83
2022/12/01 07:37:39;;;;;;;40.08;19.77;;;5.00;80.80;;;;;;4132373;28;20075;-83
2022/12/01 07:39:59;;;;;;;49.22;21.27;;;5.00;80.90;;;;;;4146145;28;20034;-83
2022/12/01 07:42:18;;;;;;;50.35;20.17;;;5.00;80.90;;;;;;4142809;28;20072;-82
2022/12/01 07:44:37;;;;;;;49.25;20.60;;;5.00;81.10;;;;;;4146794;28;20069;-82
2022/12/01 07:46:56;;;;;;;45.38;20.27;;;5.00;81.00;;;;;;4147266;28;20044;-83
2022/12/01 07:49:15;;;;;;;42.55;18.98;;;5.00;81.10;;;;;;4145106;28;20088;-82
2022/12/01 07:51:34;;;;;;;43.65;19.23;;;5.00;81.00;;;;;;4146530;28;20565;-84
2022/12/01 07:53:54;;;;;;;42.88;19.23;;;5.00;81.10;;;;;;4131885;28;20069;-83
2022/12/01 07:56:13;;;;;;;43.35;20.63;;;5.00;81.10;;;;;;4129087;28;20142;-83
2022/12/01 07:58:33;;;;;;;44.80;19.30;;;5.00;81.10;;;;;;4144905;28;20037;-84
2022/12/01 08:00:52;;;;;;;41.65;19.35;;;5.00;81.00;;;;;;4142791;28;20088;-83
2022/12/01 08:03:13;;;;;;;42.50;19.38;;;5.00;81.00;;;;;;4141077;28;21798;-83
2022/12/01 08:05:32;;;;;;;46.25;19.85;;;5.00;80.90;;;;;;4122745;28;20084;-83
2022/12/01 08:07:52;;;;;;;46.40;19.23;;;5.00;81.00;;;;;;4132106;28;20068;-82
2022/12/01 08:10:12;;;;;;;43.92;20.55;;;5.00;81.10;;;;;;4140697;28;20638;-83
2022/12/01 08:12:31;;;;;;;40.83;18.50;;;5.00;81.20;;;;;;4144270;28;20084;-83
2022/12/01 08:14:50;;;;;;;38.28;17.33;;;5.00;81.10;;;;;;4141141;28;20033;-83
2022/12/01 08:17:09;;;;;;;40.67;19.30;;;5.00;81.20;;;;;;4129838;28;20045;-81
2022/12/01 08:19:10;;;;;;;44.53;19.02;;;4.90;82.00;;;;;;4114184;28;20023;-84
2022/12/01 08:21:14;;;;;;;45.47;20.30;;;4.90;81.40;;;;;;4128317;28;20106;-82
2022/12/01 08:23:14;;;;;;;;;;;4.90;81.40;;;;;;4147659;28;20084;-83
2022/12/01 08:25:15;;;;;;;39.55;18.35;;;4.90;81.80;;;;;;4146011;28;20306;-82
2022/12/01 08:27:16;;;;;;;37.30;17.92;;;4.90;81.30;;;;;;4126896;28;20065;-83
2022/12/01 08:29:16;;;;;;;38.28;18.77;;;4.90;81.40;;;;;;4128555;28;20022;-83
2022/12/01 08:31:23;;;;;;;38.85;18.40;;;5.10;81.50;;;;;;4113126;28;20410;-83
2022/12/01 08:33:24;;;;;;;43.83;18.77;;;5.10;81.60;;;;;;4132265;28;20109;-83
2022/12/01 08:35:25;;;;;;;39.53;18.42;;;5.00;81.50;;;;;;4147420;28;20025;-83
2022/12/01 08:37:26;;;;;;;41.33;19.25;;;4.90;82.10;;;;;;4132588;28;20026;-83
2022/12/01 08:39:27;;;;;;;38.85;17.65;;;5.00;81.50;;;;;;4131889;28;20030;-83
2022/12/01 08:41:30;;;;;;;38.20;18.02;;;5.10;81.60;;;;;;4112564;28;20018;-83
2022/12/01 08:43:39;;;;;;;51.47;21.58;;;5.00;81.60;;;;;;4130395;28;20022;-84
2022/12/01 08:45:40;;;;;;;40.72;20.05;;;5.10;81.80;;;;;;4130231;28;20027;-84
2022/12/01 08:48:03;;;;;;;41.33;19.17;;;5.00;81.60;;;;;;4144985;28;20064;-83
2022/12/01 08:50:26;;;;;;;40.45;18.83;;;5.10;81.60;;;;;;4141566;28;20035;-84
2022/12/01 08:52:47;;;;;;;44.63;19.02;;;5.10;81.50;;;;;;4144482;28;20045;-84
2022/12/01 08:55:08;;;;;;;42.97;20.13;;;5.00;81.50;;;;;;4126287;28;20145;-84
2022/12/01 08:57:29;;;;;;;43.63;18.48;;;5.10;81.60;;;;;;4143087;28;20029;-84
2022/12/01 08:59:50;;;;;;;40.03;19.98;;;5.10;81.70;;;;;;4147124;28;20093;-83
2022/12/01 09:02:14;;;;;;;42.90;19.50;;;5.20;81.80;;;;;;4147619;28;20689;-83
2022/12/01 09:04:35;;;;;;;43.75;19.33;;;5.10;81.60;;;;;;4145561;28;20034;-84
2022/12/01 09:06:56;;;;;;;46.22;19.08;;;5.10;81.70;;;;;;4149000;28;20026;-83
2022/12/01 09:09:20;;;;;;;41.83;20.23;;;5.10;81.80;;;;;;4148767;28;20034;-83
2022/12/01 09:11:42;;;;;;;41.92;19.95;;;5.10;81.80;;;;;;4134230;28;20022;-85
2022/12/01 09:14:03;;;;;;;45.17;20.92;;;5.10;81.80;;;;;;4133962;28;20050;-85
2022/12/01 09:16:24;;;;;;;43.10;19.83;;;5.30;81.90;;;;;;4144033;28;20053;-84
2022/12/01 09:18:46;;;;;;;47.53;20.77;;;5.10;82.00;;;;;;4147061;28;20038;-84
2022/12/01 09:21:25;;;;;;;45.45;20.13;;;5.20;81.90;;;;;;4145298;28;20703;-85
2022/12/01 09:23:46;;;;;;;43.90;20.48;;;5.20;82.00;;;;;;4129833;28;20069;-84
2022/12/01 09:26:08;;;;;;;49.75;21.27;;;5.20;82.00;;;;;;4148030;28;20113;-83
2022/12/01 09:28:29;;;;;;;48.20;21.77;;;5.20;82.00;;;;;;4146949;28;20022;-83
2022/12/01 09:30:49;;;;;;;45.13;21.80;;;5.20;82.00;;;;;;4133909;28;20094;-84
2022/12/01 09:33:10;;;;;;;44.67;20.73;;;5.30;82.10;;;;;;4132622;28;20070;-85
2022/12/01 09:35:31;;;;;;;46.42;22.13;;;5.20;81.90;;;;;;4146304;28;20026;-83
2022/12/01 09:37:52;;;;;;;47.78;22.17;;;5.30;82.00;;;;;;4130163;28;20550;-83
2022/12/01 09:40:14;;;;;;;48.45;22.20;;;5.30;82.10;;;;;;4133026;28;20030;-82
2022/12/01 09:42:34;;;;;;;46.10;20.75;;;5.30;82.10;;;;;;4148867;28;20034;-84
2022/12/01 09:44:56;;;;;;;46.30;21.75;;;5.30;82.10;;;;;;4130692;28;20034;-83
2022/12/01 09:47:28;;;;;;;47.55;21.65;;;5.30;82.20;;;;;;4128815;28;20054;-83
2022/12/01 09:50:01;;;;;;;48.00;22.85;;;5.30;82.10;;;;;;4129161;28;20034;-84
2022/12/01 09:52:24;;;;;;;46.80;21.20;;;5.30;82.00;;;;;;4135023;28;20030;-83
2022/12/01 09:54:46;;;;;;;51.13;22.33;;;5.40;82.00;;;;;;4150009;28;20492;-86
2022/12/01 09:57:23;;;;;;;49.67;23.52;;;5.50;82.00;;;;;;4148309;28;20293;-83
2022/12/01 09:59:45;;;;;;;50.03;21.48;;;5.40;81.80;;;;;;4150249;28;20034;-83
2022/12/01 10:02:23;;;;;;;49.22;23.30;;;5.50;81.80;;;;;;4133443;28;20500;-85
2022/12/01 10:04:47;;;;;;;50.78;23.40;;;5.40;81.60;;;;;;4129107;28;20035;-83
2022/12/01 10:07:23;;;;;;;45.97;20.65;;;5.50;81.60;;;;;;4133210;28;20045;-83
2022/12/01 10:10:10;;;;;;;51.83;21.48;;;5.40;81.20;;;;;;4131462;28;20473;-83
2022/12/01 10:12:33;;;;;;;52.03;22.92;;;5.40;80.80;;;;;;4146205;28;20041;-85
2022/12/01 10:15:14;;;;;;;48.55;21.33;;;5.40;80.90;;;;;;4144637;28;20030;-83
2022/12/01 10:18:02;;;;;;;48.65;19.98;;;5.50;80.70;;;;;;4138684;28;20037;-85
2022/12/01 10:20:44;;;;;;;47.28;20.27;;;5.40;80.70;;;;;;4134574;28;20031;-84
2022/12/01 10:23:40;;;;;;;48.38;21.85;;;5.40;80.60;;;;;;4140917;28;20041;-84
2022/12/01 10:26:12;;;;;;;48.35;21.52;;;5.40;80.70;;;;;;4104227;28;20500;-84
2022/12/01 10:28:39;;;;;;;47.95;20.13;;;5.40;80.40;;;;;;4129866;28;20038;-83
2022/12/01 10:31:15;;;;;;;50.13;22.17;;;5.40;80.50;;;;;;4146793;28;20504;-83
2022/12/01 10:34:01;;;;;;;53.80;23.58;;;5.40;80.40;;;;;;4147676;28;20470;-84
2022/12/01 10:36:21;;;;;;;48.15;21.55;;;5.40;80.40;;;;;;4145378;28;20032;-83
2022/12/01 10:38:40;;;;;;;49.50;21.40;;;5.50;80.40;;;;;;4143303;28;20041;-82
2022/12/01 10:41:02;;;;;;;44.22;20.38;;;5.40;80.30;;;;;;4142647;28;20080;-83
2022/12/01 10:43:30;;;;;;;44.47;19.85;;;5.50;80.20;;;;;;4146386;28;20041;-84
2022/12/01 10:45:50;;;;;;;45.97;21.27;;;5.40;80.00;;;;;;4132543;28;20061;-83
2022/12/01 10:48:14;;;;;;;44.70;20.30;;;5.40;80.00;;;;;;4143950;28;20033;-84
2022/12/01 10:50:34;;;;;;;43.88;20.92;;;5.40;79.90;;;;;;4140406;28;20088;-86
2022/12/01 10:52:53;;;;;;;42.58;19.02;;;5.40;79.90;;;;;;4145017;28;20061;-82
2022/12/01 10:55:21;;;;;;;42.28;20.52;;;5.40;79.90;;;;;;4146407;28;20038;-83
2022/12/01 10:57:44;;;;;;;47.50;20.85;;;5.30;79.90;;;;;;4133267;28;20049;-84
2022/12/01 11:00:07;;;;;;;45.30;21.17;;;5.40;80.00;;;;;;4132918;28;20034;-83
2022/12/01 11:02:29;;;;;;;43.30;21.27;;;5.30;80.10;;;;;;4132992;28;20052;-83
2022/12/01 11:05:17;;;;;;;46.90;21.45;;;5.30;80.10;;;;;;4130945;28;20049;-83
2022/12/01 11:07:46;;;;;;;48.08;22.48;;;5.30;80.10;;;;;;4132249;28;20062;-84
2022/12/01 11:10:05;;;;;;;50.83;21.45;;;5.30;80.10;;;;;;4130734;28;20114;-83
2022/12/01 11:12:25;;;;;;;46.90;21.88;;;5.30;80.10;;;;;;4130962;28;20061;-84
2022/12/01 11:14:54;;;;;;;45.33;20.58;;;5.30;80.20;;;;;;4146385;28;20037;-82
2022/12/01 11:17:43;;;;;;;50.92;23.55;;;5.40;80.30;;;;;;4127692;28;20072;-82
2022/12/01 11:20:31;;;;;;;52.08;23.05;;;5.30;80.30;;;;;;4143368;28;20028;-83
2022/12/01 11:22:52;;;;;;;56.17;24.00;;;5.30;80.10;;;;;;4145656;28;20097;-83
2022/12/01 11:25:20;;;;;;;50.53;23.02;;;5.30;80.20;;;;;;4133986;28;20077;-83
2022/12/01 11:28:07;;;;;;;55.80;23.80;;;5.30;80.10;;;;;;4141040;28;20538;-83
2022/12/01 11:30:30;;;;;;;46.55;22.40;;;5.30;80.20;;;;;;4125081;28;20053;-83
2022/12/01 11:32:56;;;;;;;53.17;23.27;;;5.40;80.30;;;;;;4147271;28;20041;-85
2022/12/01 11:35:18;;;;;;;51.83;24.00;;;5.20;80.30;;;;;;4148058;28;20546;-83
2022/12/01 11:37:44;;;;;;;51.42;24.23;;;5.20;80.40;;;;;;4144978;28;20041;-82
2022/12/01 11:40:15;;;;;;;53.85;24.27;;;5.30;80.50;;;;;;4142890;28;20041;-84
2022/12/01 11:42:35;;;;;;;54.85;23.58;;;5.20;80.50;;;;;;4142749;28;20113;-84
2022/12/01 11:44:56;;;;;;;54.35;24.65;;;5.20;81.10;;;;;;4144653;28;20047;-83
2022/12/01 11:47:21;;;;;;;54.95;24.83;;;5.20;80.80;;;;;;4141033;28;20073;-83
2022/12/01 11:49:45;;;;;;;55.75;23.27;;;5.20;80.80;;;;;;4127948;28;20048;-83
2022/12/01 11:52:20;;;;;;;56.15;23.48;;;5.20;80.80;;;;;;4129010;28;20049;-82
2022/12/01 11:54:58;;;;;;;47.75;21.98;;;5.20;80.80;;;;;;4129266;28;20534;-83
2022/12/01 11:57:17;;;;;;;58.65;23.88;;;5.20;80.80;;;;;;4127523;28;20086;-83
2022/12/01 11:59:36;;;;;;;54.65;24.00;;;5.20;80.80;;;;;;4132314;28;20050;-83
2022/12/01 12:02:17;;;;;;;50.65;23.50;;;5.20;80.80;;;;;;4143666;28;20034;-84
2022/12/01 12:05:27;;;;;;;53.85;23.45;;;5.20;80.80;;;;;;4140160;28;20068;-82